createdAt,value
2019-03-04T00:02:26.842Z,22.10
2019-03-04T00:04:56.891Z,21.40
2019-03-04T00:07:26.020Z,22.45
2019-03-04T00:09:53.755Z,21.62
2019-03-04T00:12:21.684Z,22.55
2019-03-04T00:14:49.491Z,24.25
2019-03-04T00:17:18.637Z,21.68
2019-03-04T00:19:46.463Z,21.02
2019-03-04T00:22:14.366Z,22.30
2019-03-04T00:24:42.175Z,23.50
2019-03-04T00:27:10.085Z,22.25
2019-03-04T00:29:37.927Z,22.85
2019-03-04T00:32:08.209Z,23.98
2019-03-04T00:34:36.181Z,24.27
2019-03-04T00:37:03.954Z,24.10
2019-03-04T00:39:34.738Z,22.95
2019-03-04T00:42:02.612Z,23.57
2019-03-04T00:44:30.467Z,25.90
2019-03-04T00:46:58.341Z,22.90
2019-03-04T00:49:26.177Z,25.97
2019-03-04T00:51:53.900Z,25.77
2019-03-04T00:54:22.696Z,25.17
2019-03-04T00:56:50.641Z,23.87
2019-03-04T00:59:19.674Z,23.07
2019-03-04T01:01:47.607Z,21.70
2019-03-04T01:04:15.399Z,23.38
2019-03-04T01:06:43.321Z,20.88
2019-03-04T01:09:13.383Z,23.75
2019-03-04T01:11:41.066Z,21.93
2019-03-04T01:14:08.910Z,22.35
2019-03-04T01:16:37.275Z,21.45
2019-03-04T01:19:05.336Z,23.50
2019-03-04T01:21:33.058Z,27.07
2019-03-04T01:24:00.863Z,30.08
2019-03-04T01:26:28.663Z,30.50
2019-03-04T01:28:57.791Z,30.75
2019-03-04T01:31:26.887Z,29.95
2019-03-04T01:33:54.578Z,28.27
2019-03-04T01:36:22.562Z,29.65
2019-03-04T01:38:50.502Z,26.45
2019-03-04T01:41:18.286Z,27.82
2019-03-04T01:43:49.124Z,25.32
2019-03-04T01:46:17.046Z,23.27
2019-03-04T01:48:44.861Z,22.45
2019-03-04T01:51:12.532Z,21.57
2019-03-04T01:53:40.242Z,20.60
2019-03-04T01:56:09.477Z,20.37
2019-03-04T01:58:39.602Z,20.17
2019-03-04T02:01:07.281Z,20.30
2019-03-04T02:03:34.967Z,23.45
2019-03-04T02:06:02.700Z,20.35
2019-03-04T02:08:30.625Z,23.12
2019-03-04T02:10:59.677Z,18.73
2019-03-04T02:13:30.518Z,20.97
2019-03-04T02:15:58.702Z,17.92
2019-03-04T02:18:26.740Z,18.82
2019-03-04T02:20:54.915Z,19.12
2019-03-04T02:23:22.776Z,16.85
2019-03-04T02:26:30.256Z,21.23
2019-03-04T02:28:58.224Z,21.10
2019-03-04T02:31:26.124Z,18.90
2019-03-04T02:33:53.853Z,20.23
2019-03-04T02:36:23.399Z,20.30
2019-03-04T02:38:51.352Z,19.75
2019-03-04T02:41:19.190Z,19.15
2019-03-04T02:43:46.915Z,20.92
2019-03-04T02:46:15.067Z,20.50
2019-03-04T02:48:43.136Z,19.82
2019-03-04T02:51:11.049Z,19.87
2019-03-04T02:53:38.991Z,21.95
2019-03-04T02:56:07.115Z,19.10
2019-03-04T02:58:35.065Z,23.00
2019-03-04T03:01:03.509Z,22.25
2019-03-04T03:03:31.234Z,22.90
2019-03-04T03:05:59.091Z,21.80
2019-03-04T03:08:26.870Z,21.68
2019-03-04T03:10:54.835Z,19.30
2019-03-04T03:13:22.931Z,21.12
2019-03-04T03:15:50.663Z,19.15
2019-03-04T03:18:24.879Z,19.30
2019-03-04T03:20:52.942Z,20.68
2019-03-04T03:23:21.044Z,15.98
2019-03-04T03:25:49.195Z,19.50
2019-03-04T03:28:17.381Z,20.48
2019-03-04T03:30:45.117Z,19.80
2019-03-04T03:33:12.995Z,18.90
2019-03-04T03:35:41.544Z,18.80
2019-03-04T03:38:09.358Z,19.05
2019-03-04T03:40:37.546Z,20.30
2019-03-04T03:43:05.476Z,18.92
2019-03-04T03:45:33.556Z,19.73
2019-03-04T03:48:01.496Z,18.10
2019-03-04T03:50:30.530Z,18.82
2019-03-04T03:52:58.334Z,19.67
2019-03-04T03:55:27.580Z,18.32
2019-03-04T03:57:56.499Z,17.20
2019-03-04T04:00:25.069Z,19.80
2019-03-04T04:02:53.218Z,18.42
2019-03-04T04:05:20.929Z,16.97
2019-03-04T04:07:48.871Z,17.60
2019-03-04T04:10:17.744Z,17.73
2019-03-04T04:12:47.906Z,16.57
2019-03-04T04:15:16.961Z,19.05
2019-03-04T04:17:45.246Z,18.60
2019-03-04T04:20:13.258Z,18.85
2019-03-04T04:22:45.474Z,17.35
2019-03-04T04:25:14.105Z,18.25
2019-03-04T04:27:42.107Z,19.17
2019-03-04T04:30:10.858Z,20.48
2019-03-04T04:32:39.204Z,19.27
2019-03-04T04:35:07.394Z,20.70
2019-03-04T04:37:40.041Z,19.92
2019-03-04T04:40:08.071Z,20.95
2019-03-04T04:42:35.831Z,21.42
2019-03-04T04:45:04.007Z,25.65
2019-03-04T04:47:34.107Z,28.50
2019-03-04T04:50:02.389Z,23.67
2019-03-04T04:52:31.641Z,22.55
2019-03-04T04:55:00.996Z,23.90
2019-03-04T04:57:28.718Z,22.02
2019-03-04T04:59:56.570Z,21.90
2019-03-04T05:02:24.280Z,24.27
2019-03-04T05:04:52.314Z,25.68
2019-03-04T05:07:20.896Z,27.22
2019-03-04T05:09:48.853Z,30.97
2019-03-04T05:12:22.419Z,30.70
2019-03-04T05:14:53.611Z,33.35
2019-03-04T05:17:21.412Z,33.98
2019-03-04T05:19:49.331Z,32.75
2019-03-04T05:22:17.065Z,30.72
2019-03-04T05:24:44.740Z,31.33
2019-03-04T05:27:13.804Z,31.48
2019-03-04T05:29:41.548Z,31.33
2019-03-04T05:32:09.477Z,29.15
2019-03-04T05:34:37.195Z,32.10
2019-03-04T05:37:05.745Z,30.75
2019-03-04T05:39:34.683Z,31.25
2019-03-04T05:42:02.921Z,32.80
2019-03-04T05:44:30.592Z,30.72
2019-03-04T05:46:58.688Z,30.37
2019-03-04T05:49:26.672Z,31.05
2019-03-04T05:51:54.414Z,33.63
2019-03-04T05:54:22.103Z,31.82
2019-03-04T05:56:50.146Z,33.18
2019-03-04T05:59:19.941Z,34.78
2019-03-04T06:02:08.062Z,34.73
2019-03-04T06:04:36.658Z,36.30
2019-03-04T06:07:07.781Z,35.40
2019-03-04T06:09:37.009Z,37.20
2019-03-04T06:12:10.838Z,35.10
2019-03-04T06:14:38.539Z,34.88
2019-03-04T06:17:06.283Z,36.03
2019-03-04T06:19:34.313Z,33.33
2019-03-04T06:22:02.475Z,38.40
2019-03-04T06:24:30.465Z,36.42
2019-03-04T06:26:58.525Z,37.33
2019-03-04T06:29:26.451Z,36.53
2019-03-04T06:31:55.771Z,37.38
2019-03-04T06:34:24.149Z,41.05
2019-03-04T06:36:53.088Z,35.95
2019-03-04T06:39:21.192Z,37.45
2019-03-04T06:41:49.044Z,38.63
2019-03-04T06:44:16.847Z,40.38
2019-03-04T06:46:45.267Z,38.23
2019-03-04T06:49:15.139Z,39.30
2019-03-04T06:51:44.788Z,37.55
2019-03-04T06:54:18.912Z,36.90
2019-03-04T06:57:00.015Z,38.85
2019-03-04T06:59:51.424Z,34.65
2019-03-04T07:02:22.939Z,31.42
2019-03-04T07:05:34.924Z,29.92
2019-03-04T07:08:02.565Z,30.25
2019-03-04T07:10:30.622Z,28.92
2019-03-04T07:12:58.303Z,28.90
2019-03-04T07:15:26.402Z,29.80
2019-03-04T07:17:54.156Z,30.00
2019-03-04T07:20:22.136Z,27.52
2019-03-04T07:22:51.128Z,26.82
2019-03-04T07:25:19.901Z,26.43
2019-03-04T07:27:48.958Z,28.33
2019-03-04T07:30:17.143Z,27.07
2019-03-04T07:32:45.890Z,26.40
2019-03-04T07:35:13.925Z,27.77
2019-03-04T07:37:43.370Z,27.87
2019-03-04T07:40:12.474Z,26.67
2019-03-04T07:42:42.415Z,27.87
2019-03-04T07:45:11.327Z,26.90
2019-03-04T07:47:39.431Z,28.53
2019-03-04T07:50:07.697Z,26.27
2019-03-04T07:52:35.822Z,29.30
2019-03-04T07:55:04.064Z,28.70
2019-03-04T07:57:31.993Z,27.03
2019-03-04T08:00:00.376Z,29.60
2019-03-04T08:02:29.419Z,30.80
2019-03-04T08:04:57.275Z,33.23
2019-03-04T08:07:47.127Z,32.33
2019-03-04T08:10:30.282Z,34.70
2019-03-04T08:13:17.307Z,34.07
2019-03-04T08:15:47.622Z,35.27
2019-03-04T08:18:15.709Z,31.60
2019-03-04T08:20:44.309Z,32.77
2019-03-04T08:23:12.290Z,35.20
2019-03-04T08:25:40.493Z,33.30
2019-03-04T08:28:10.302Z,30.43
2019-03-04T08:30:38.876Z,31.00
2019-03-04T08:33:06.885Z,30.50
2019-03-04T08:35:34.795Z,33.20
2019-03-04T08:38:03.994Z,33.50
2019-03-04T08:40:36.237Z,33.87
2019-03-04T08:43:04.076Z,31.57
2019-03-04T08:45:31.961Z,31.90
2019-03-04T08:48:00.488Z,31.83
2019-03-04T08:50:28.556Z,32.97
2019-03-04T08:52:56.283Z,29.63
2019-03-04T08:55:25.350Z,32.77
2019-03-04T08:57:59.407Z,30.90
2019-03-04T09:00:29.397Z,32.27
2019-03-04T09:02:57.333Z,32.17
2019-03-04T09:05:25.637Z,30.20
2019-03-04T09:07:53.851Z,31.73
2019-03-04T09:10:26.767Z,29.50
2019-03-04T09:12:54.893Z,26.73
2019-03-04T09:15:22.993Z,28.63
2019-03-04T09:17:52.697Z,28.67
2019-03-04T09:20:22.077Z,27.97
2019-03-04T09:22:50.115Z,28.03
2019-03-04T09:25:30.111Z,27.50
2019-03-04T09:27:51.751Z,27.30
2019-03-04T09:30:19.884Z,26.20
2019-03-04T09:32:48.186Z,26.20
2019-03-04T09:35:16.496Z,26.10
2019-03-04T09:37:44.650Z,26.20
2019-03-04T09:40:15.231Z,26.27
2019-03-04T09:42:46.680Z,25.87
2019-03-04T09:45:15.011Z,26.10
2019-03-04T09:47:43.551Z,25.00
2019-03-04T09:50:14.264Z,25.10
2019-03-04T09:52:42.957Z,24.00
2019-03-04T09:55:12.625Z,24.10
2019-03-04T09:57:40.559Z,22.20
2019-03-04T10:00:58.654Z,24.40
2019-03-04T10:03:47.986Z,21.40
2019-03-04T10:06:40.320Z,20.57
2019-03-04T10:09:44.408Z,21.07
2019-03-04T10:12:39.220Z,20.50
2019-03-04T10:15:20.690Z,21.47
2019-03-04T10:18:15.560Z,20.33
2019-03-04T10:21:30.810Z,11.90
2019-03-04T10:24:52.567Z,10.07
2019-03-04T10:27:59.503Z,11.03
2019-03-04T10:31:33.482Z,10.80
2019-03-04T10:34:51.587Z,11.63
2019-03-04T10:37:58.100Z,8.80
2019-03-04T10:40:46.112Z,4.27
2019-03-04T10:43:52.980Z,3.03
2019-03-04T10:46:51.066Z,3.20
2019-03-04T10:49:18.831Z,3.20
2019-03-04T10:51:46.720Z,3.10
2019-03-04T10:54:14.578Z,3.60
2019-03-04T10:56:44.400Z,3.70
2019-03-04T10:59:12.286Z,3.27
2019-03-04T11:01:47.340Z,2.17
2019-03-04T11:04:15.540Z,2.80
2019-03-04T11:06:49.280Z,2.57
2019-03-04T11:09:17.335Z,2.97
2019-03-04T11:11:51.996Z,2.77
2019-03-04T11:14:19.927Z,3.07
2019-03-04T11:16:47.836Z,2.80
2019-03-04T11:19:16.869Z,2.50
2019-03-04T11:21:45.293Z,2.47
2019-03-04T11:24:15.042Z,2.00
2019-03-04T11:26:43.104Z,2.50
2019-03-04T11:29:13.272Z,2.10
2019-03-04T11:31:42.811Z,2.80
2019-03-04T11:34:10.630Z,2.77
2019-03-04T11:36:40.801Z,2.00
2019-03-04T11:39:46.027Z,2.20
2019-03-04T11:42:14.251Z,2.73
2019-03-04T11:44:43.084Z,3.23
2019-03-04T11:47:12.338Z,2.37
2019-03-04T11:49:40.454Z,5.83
2019-03-04T11:52:08.350Z,7.93
2019-03-04T11:54:36.065Z,4.23
2019-03-04T11:57:04.186Z,3.13
2019-03-04T11:59:32.944Z,2.53
2019-03-04T12:02:01.184Z,2.70
2019-03-04T12:04:29.255Z,3.53
2019-03-04T12:06:57.244Z,2.90
2019-03-04T12:09:25.023Z,3.90
2019-03-04T12:11:55.425Z,3.40
2019-03-04T12:14:23.287Z,3.00
2019-03-04T12:16:52.747Z,3.37
2019-03-04T12:19:20.669Z,2.90
2019-03-04T12:21:50.570Z,3.17
2019-03-04T12:24:19.584Z,3.37
2019-03-04T12:26:47.522Z,3.40
2019-03-04T12:29:16.534Z,3.40
2019-03-04T12:32:07.324Z,3.23
2019-03-04T12:34:36.779Z,3.50
2019-03-04T12:37:08.567Z,3.23
2019-03-04T12:39:39.300Z,4.20
2019-03-04T12:42:07.416Z,3.47
2019-03-04T12:44:36.585Z,3.37
2019-03-04T12:47:04.702Z,3.00
2019-03-04T12:49:32.778Z,3.13
2019-03-04T12:52:00.517Z,3.83
2019-03-04T12:54:28.295Z,5.50
2019-03-04T12:56:59.410Z,4.73
2019-03-04T12:59:27.459Z,3.90
2019-03-04T13:01:55.667Z,4.07
2019-03-04T13:04:23.559Z,3.70
2019-03-04T13:06:51.518Z,4.10
2019-03-04T13:09:19.331Z,3.73
2019-03-04T13:11:47.497Z,4.67
2019-03-04T13:14:15.195Z,4.73
2019-03-04T13:16:43.282Z,4.10
2019-03-04T13:19:11.274Z,14.57
2019-03-04T13:21:39.590Z,5.20
2019-03-04T13:24:07.413Z,11.67
2019-03-04T13:26:35.256Z,5.70
2019-03-04T13:29:04.944Z,4.13
2019-03-04T13:31:32.964Z,4.63
2019-03-04T13:34:00.993Z,6.40
2019-03-04T13:36:28.790Z,6.10
2019-03-04T13:38:56.510Z,5.30
2019-03-04T13:41:24.865Z,5.60
2019-03-04T13:43:52.652Z,5.43
2019-03-04T13:46:20.669Z,4.43
2019-03-04T13:48:55.724Z,6.30
2019-03-04T13:51:24.941Z,5.17
2019-03-04T13:53:52.791Z,4.00
2019-03-04T13:56:20.704Z,3.67
2019-03-04T13:58:48.495Z,4.58
2019-03-04T14:01:16.519Z,4.33
2019-03-04T14:03:44.643Z,4.35
2019-03-04T14:06:12.676Z,4.40
2019-03-04T14:08:40.839Z,4.33
2019-03-04T14:11:08.782Z,4.65
2019-03-04T14:13:36.985Z,3.80
2019-03-04T14:16:05.310Z,5.75
2019-03-04T14:18:33.065Z,4.20
2019-03-04T14:21:01.789Z,4.75
2019-03-04T14:23:30.274Z,4.42
2019-03-04T14:25:58.786Z,5.30
2019-03-04T14:28:28.743Z,4.55
2019-03-04T14:30:56.527Z,5.10
2019-03-04T14:33:25.544Z,5.10
2019-03-04T14:35:54.445Z,4.33
2019-03-04T14:38:22.815Z,5.95
2019-03-04T14:40:51.753Z,4.90
2019-03-04T14:43:20.818Z,4.62
2019-03-04T14:45:50.002Z,4.67
2019-03-04T14:48:18.191Z,4.87
2019-03-04T14:50:47.368Z,4.50
2019-03-04T14:53:16.443Z,4.80
2019-03-04T14:55:44.154Z,4.40
2019-03-04T14:58:12.288Z,4.83
2019-03-04T15:00:42.595Z,4.83
2019-03-04T15:03:19.874Z,5.65
2019-03-04T15:05:41.037Z,5.15
2019-03-04T15:08:09.389Z,6.33
2019-03-04T15:10:38.836Z,5.25
2019-03-04T15:13:12.020Z,5.65
2019-03-04T15:15:39.836Z,7.92
2019-03-04T15:18:07.788Z,5.25
2019-03-04T15:20:37.575Z,6.10
2019-03-04T15:23:05.480Z,6.35
2019-03-04T15:25:40.543Z,6.05
2019-03-04T15:28:16.515Z,6.28
2019-03-04T15:30:45.538Z,6.12
2019-03-04T15:33:18.223Z,5.45
2019-03-04T15:35:43.733Z,6.35
2019-03-04T15:38:11.503Z,6.20
2019-03-04T15:40:39.714Z,6.40
2019-03-04T15:43:07.873Z,6.78
2019-03-04T15:45:43.183Z,7.05
2019-03-04T15:48:12.496Z,7.87
2019-03-04T15:50:44.487Z,8.58
2019-03-04T15:53:13.081Z,8.23
2019-03-04T15:55:43.703Z,7.53
2019-03-04T15:58:11.686Z,6.17
2019-03-04T16:00:44.884Z,6.87
2019-03-04T16:03:13.086Z,6.92
2019-03-04T16:05:42.026Z,7.03
2019-03-04T16:08:10.115Z,8.53
2019-03-04T16:10:38.124Z,9.03
2019-03-04T16:13:07.121Z,8.35
2019-03-04T16:15:36.714Z,7.83
2019-03-04T16:18:04.872Z,7.00
2019-03-04T16:20:32.868Z,8.55
2019-03-04T16:23:01.104Z,8.75
2019-03-04T16:25:28.815Z,9.23
2019-03-04T16:28:05.380Z,9.50
2019-03-04T16:30:33.373Z,9.25
2019-03-04T16:33:01.564Z,10.20
2019-03-04T16:35:29.746Z,10.15
2019-03-04T16:37:57.604Z,11.80
2019-03-04T16:40:25.710Z,11.53
2019-03-04T16:42:53.711Z,11.53
2019-03-04T16:45:21.698Z,10.60
2019-03-04T16:47:50.178Z,10.75
2019-03-04T16:50:18.473Z,10.13
2019-03-04T16:52:48.123Z,11.83
2019-03-04T16:55:16.022Z,14.40
2019-03-04T16:57:43.966Z,11.70
2019-03-04T17:00:15.095Z,10.98
2019-03-04T17:02:43.411Z,11.63
2019-03-04T17:05:12.399Z,14.50
2019-03-04T17:07:40.172Z,17.42
2019-03-04T17:10:09.880Z,20.77
2019-03-04T17:12:37.971Z,16.15
2019-03-04T17:15:10.430Z,20.80
2019-03-04T17:17:38.555Z,16.23
2019-03-04T17:20:08.563Z,16.75
2019-03-04T17:22:37.455Z,17.80
2019-03-04T17:25:06.648Z,16.60
2019-03-04T17:27:35.832Z,15.15
2019-03-04T17:30:07.881Z,13.95
2019-03-04T17:32:36.079Z,12.47
2019-03-04T17:35:04.872Z,11.40
2019-03-04T17:37:33.003Z,11.18
2019-03-04T17:40:00.695Z,7.95
2019-03-04T17:42:29.038Z,10.43
2019-03-04T17:44:57.227Z,11.80
2019-03-04T17:47:25.400Z,11.90
2019-03-04T17:49:53.314Z,12.15
2019-03-04T17:52:22.951Z,9.70
2019-03-04T17:54:51.048Z,8.65
2019-03-04T17:57:19.151Z,8.90
2019-03-04T17:59:50.855Z,8.45
2019-03-04T18:02:19.372Z,7.75
2019-03-04T18:04:47.330Z,9.98
2019-03-04T18:07:15.683Z,15.20
2019-03-04T18:09:44.620Z,11.28
2019-03-04T18:12:12.597Z,10.50
2019-03-04T18:14:40.422Z,12.53
2019-03-04T18:17:08.708Z,12.20
2019-03-04T18:19:36.678Z,12.20
2019-03-04T18:22:04.964Z,11.45
2019-03-04T18:24:32.830Z,8.98
2019-03-04T18:27:16.891Z,10.13
2019-03-04T18:30:20.867Z,8.13
2019-03-04T18:33:19.062Z,8.25
2019-03-04T18:36:27.424Z,9.55
2019-03-04T18:39:21.518Z,11.38
2019-03-04T18:42:31.612Z,10.23
2019-03-04T18:45:37.712Z,9.00
2019-03-04T18:48:37.479Z,8.40
2019-03-04T18:51:05.267Z,8.60
2019-03-04T18:53:33.052Z,8.15
2019-03-04T18:56:01.158Z,9.13
2019-03-04T18:58:29.926Z,8.93
2019-03-04T19:00:58.357Z,9.43
2019-03-04T19:03:26.460Z,9.28
2019-03-04T19:05:54.652Z,7.60
2019-03-04T19:08:22.742Z,7.90
2019-03-04T19:10:50.646Z,8.38
2019-03-04T19:13:22.025Z,8.53
2019-03-04T19:15:50.880Z,7.05
2019-03-04T19:18:22.229Z,7.78
2019-03-04T19:20:50.328Z,7.60
2019-03-04T19:23:20.036Z,8.43
2019-03-04T19:25:48.120Z,9.05
2019-03-04T19:28:18.907Z,7.60
2019-03-04T19:30:47.959Z,8.00
2019-03-04T19:33:17.092Z,8.15
2019-03-04T19:35:45.187Z,8.70
2019-03-04T19:38:17.254Z,8.30
2019-03-04T19:40:46.274Z,8.95
2019-03-04T19:43:15.132Z,9.20
2019-03-04T19:45:45.750Z,8.85
2019-03-04T19:48:13.611Z,13.28
2019-03-04T19:50:43.182Z,27.15
2019-03-04T19:53:15.907Z,24.00
2019-03-04T19:55:44.990Z,21.20
2019-03-04T19:58:14.206Z,20.90
2019-03-04T20:00:42.442Z,21.77
2019-03-04T20:03:12.433Z,20.88
2019-03-04T20:05:41.171Z,20.00
2019-03-04T20:08:09.263Z,19.75
2019-03-04T20:10:37.447Z,18.07
2019-03-04T20:13:05.582Z,21.60
2019-03-04T20:15:33.736Z,20.82
2019-03-04T20:18:03.124Z,26.90
2019-03-04T20:20:32.669Z,24.70
2019-03-04T20:23:00.713Z,29.20
2019-03-04T20:25:29.031Z,34.67
2019-03-04T20:27:59.429Z,44.60
2019-03-04T20:30:27.923Z,47.20
2019-03-04T20:32:55.804Z,47.75
2019-03-04T20:35:24.119Z,51.65
2019-03-04T20:37:53.029Z,49.58
2019-03-04T20:40:20.842Z,47.20
2019-03-04T20:42:50.074Z,47.95
2019-03-04T20:45:19.215Z,42.03
2019-03-04T20:47:51.319Z,43.02
2019-03-04T20:50:20.865Z,42.30
2019-03-04T20:52:49.395Z,43.95
2019-03-04T20:55:17.724Z,35.38
2019-03-04T20:57:46.058Z,36.70
2019-03-04T21:00:18.828Z,33.75
2019-03-04T21:02:47.118Z,31.33
2019-03-04T21:05:15.390Z,32.95
2019-03-04T21:07:44.121Z,35.15
2019-03-04T21:10:12.427Z,33.45
2019-03-04T21:12:40.991Z,33.40
2019-03-04T21:15:10.217Z,35.15
2019-03-04T21:17:38.232Z,33.83
2019-03-04T21:20:07.638Z,35.00
2019-03-04T21:22:37.531Z,34.10
2019-03-04T21:25:08.820Z,34.05
2019-03-04T21:27:36.671Z,35.75
2019-03-04T21:30:55.071Z,33.25
2019-03-04T21:33:46.034Z,28.77
2019-03-04T21:36:29.681Z,30.77
2019-03-04T21:38:58.418Z,29.32
2019-03-04T21:42:05.988Z,28.77
2019-03-04T21:45:12.701Z,27.70
2019-03-04T21:47:45.941Z,29.60
2019-03-04T21:50:17.651Z,26.82
2019-03-04T21:53:08.535Z,28.55
2019-03-04T21:56:12.485Z,28.35
2019-03-04T21:58:40.267Z,25.85
2019-03-04T22:01:17.778Z,27.52
2019-03-04T22:03:46.243Z,26.68
2019-03-04T22:06:14.297Z,24.35
2019-03-04T22:08:42.275Z,22.25
2019-03-04T22:11:10.213Z,20.30
2019-03-04T22:13:38.278Z,25.23
2019-03-04T22:16:06.565Z,23.15
2019-03-04T22:18:34.521Z,24.45
2019-03-04T22:21:03.061Z,24.85
2019-03-04T22:23:34.561Z,24.30
2019-03-04T22:26:02.474Z,24.70
2019-03-04T22:28:31.937Z,25.60
2019-03-04T22:30:59.825Z,24.23
2019-03-04T22:33:27.634Z,24.23
2019-03-04T22:35:55.725Z,23.80
2019-03-04T22:38:23.764Z,21.02
2019-03-04T22:40:51.642Z,22.98
2019-03-04T22:43:19.869Z,24.40
2019-03-04T22:45:47.816Z,24.15
2019-03-04T22:48:18.422Z,23.02
2019-03-04T22:50:46.481Z,22.10
2019-03-04T22:53:15.806Z,23.65
2019-03-04T22:55:43.868Z,22.85
2019-03-04T22:58:11.738Z,23.62
2019-03-04T23:01:33.438Z,25.37
2019-03-04T23:04:26.379Z,25.10
2019-03-04T23:07:16.651Z,24.05
2019-03-04T23:09:59.993Z,24.70
2019-03-04T23:12:42.021Z,23.62
2019-03-04T23:15:13.930Z,25.00
2019-03-04T23:17:41.858Z,25.55
2019-03-04T23:20:09.753Z,22.62
2019-03-04T23:22:37.598Z,22.60
2019-03-04T23:25:06.776Z,22.50
2019-03-04T23:27:34.553Z,23.60
2019-03-04T23:30:02.389Z,23.65
2019-03-04T23:32:30.287Z,23.73
2019-03-04T23:34:58.070Z,21.70
2019-03-04T23:37:26.010Z,23.55
2019-03-04T23:39:53.856Z,23.70
2019-03-04T23:42:21.762Z,23.75
2019-03-04T23:44:49.546Z,25.72
2019-03-04T23:47:17.777Z,23.52
2019-03-04T23:49:45.856Z,22.22
2019-03-04T23:52:13.558Z,23.98
2019-03-04T23:54:42.655Z,23.00
2019-03-04T23:57:10.582Z,22.45
2019-03-04T23:59:38.431Z,22.85
